Abbey Dell, Indiana
Current Conditions -  °F | °C
As of 5:15 PM on Sunday 21 Dec 2014 (Local Time) from KDCY Reporting Station
Clear Clear  
Wind Chill: 34°   Ceiling: Unl
Heat Index: 39°   Visibility: 10mi
Dew Point: 29°   Wind: 7mph
Humidity: 66%   Direction: 90°E
Pressure: 30.11"   Gusts: NA
Location:  38.6165°N, 86.6265°W
Report Text: KDCY 212215Z AUTO 09006KT 10SM CLR 04/M02 A3011 RMK AO2 T00401018
Loading
Personal Weather Stations






























Interactive Weather Map New forecast layout! Learn more

10-Day Weather Forecast

Advertisements
Track Severe Weather on mobile